Time;durP1;ratioP1;P1;durP2;ratioP2;P2;SDS_P1;SDS_P2;PMS_P1;PMS_P2;Temp;Humidity;BMP_temperature;BMP_pressure;BME280_temperature;BME280_humidity;BME280_pressure;Samples;Min_cycle;Max_cycle;Signal;HPM_P1;HPM_P2
2021/01/17 02:36:42;;;;;;;66.87;39.63;;;;;;;-22.60;100.00;99158.06;1824109;76;21236;-75
2021/01/17 02:40:05;;;;;;;44.13;31.43;;;;;;;-22.64;100.00;99156.50;1817084;78;21589;-75
2021/01/17 02:46:39;;;;;;;;;;;;;;;;;;;;;
2021/01/17 02:49:18;;;;;;;49.17;31.60;;;;;;;-22.67;100.00;99165.08;1832811;77;23957;-76
2021/01/17 02:52:12;;;;;;;27.60;20.57;;;;;;;-22.74;100.00;99166.17;1778219;79;21560;-73
2021/01/17 02:55:01;;;;;;;31.70;18.67;;;;;;;-22.77;100.00;99164.58;1763189;80;22279;-74
2021/01/17 02:58:06;;;;;;;42.33;25.17;;;;;;;-22.62;100.00;99172.54;1786183;78;20990;-77
2021/01/17 03:40:38;;;;;;;;;;;;;;;;;;;;;
2021/01/17 03:59:01;;;;;;;42.45;26.37;;;;;;;-21.98;100.00;99147.17;1747778;81;26293;-75
2021/01/17 04:01:39;;;;;;;52.93;30.27;;;;;;;-21.80;100.00;99146.88;1753763;80;20997;-73
2021/01/17 04:04:10;;;;;;;42.27;29.43;;;;;;;-21.68;100.00;99145.58;1771786;79;21674;-74
2021/01/17 04:07:02;;;;;;;;;;;;;;;;;;;;;
2021/01/17 04:10:03;;;;;;;82.73;36.97;;;;;;;-21.37;100.00;99147.67;1880138;75;22364;-74
2021/01/17 04:38:52;;;;;;;;;;;;;;;;;;;;;
2021/01/17 04:41:33;;;;;;;58.10;34.00;;;;;;;-20.57;100.00;99139.98;1821768;78;23939;-74
2021/01/17 04:44:04;;;;;;;58.43;33.20;;;;;;;-20.62;100.00;99143.19;1794982;79;21380;-72
2021/01/17 04:46:37;;;;;;;98.40;42.77;;;;;;;-20.58;100.00;99142.13;1796042;79;21376;-75
2021/01/17 04:49:19;;;;;;;63.58;36.45;;;;;;;-20.58;100.00;99143.41;1759104;81;20897;-74
2021/01/17 04:51:51;;;;;;;46.75;30.72;;;;;;;-20.53;100.00;99141.89;1764923;79;21595;-73
2021/01/17 04:54:21;;;;;;;56.43;31.60;;;;;;;-20.45;100.00;99139.00;1762445;81;21519;-75
2021/01/17 04:57:14;;;;;;;58.20;35.33;;;;;;;-20.33;100.00;99142.27;1795099;79;20907;-73
2021/01/17 05:00:16;;;;;;;70.93;32.40;;;;;;;-20.21;100.00;99135.78;1803439;78;22265;-76
2021/01/17 05:03:28;;;;;;;132.30;58.85;;;;;;;-20.25;100.00;99136.39;1765383;80;21252;-76
2021/01/17 05:06:30;;;;;;;72.30;33.10;;;;;;;-20.21;100.00;99136.59;1760877;81;22262;-74
2021/01/17 05:09:03;;;;;;;31.90;18.23;;;;;;;-20.04;100.00;99133.72;1684825;83;21081;-75
2021/01/17 05:11:47;;;;;;;95.42;35.88;;;;;;;-20.02;100.00;99130.20;1751123;81;21180;-75
2021/01/17 05:14:27;;;;;;;61.97;29.10;;;;;;;-19.98;100.00;99125.78;1746758;81;21058;-72
2021/01/17 05:16:57;;;;;;;40.83;22.05;;;;;;;-19.92;100.00;99125.48;1723809;81;21189;-74
2021/01/17 05:19:35;;;;;;;76.87;33.60;;;;;;;-19.92;100.00;99120.38;1749401;81;21189;-75
2021/01/17 05:33:31;;;;;;;59.77;30.20;;;;;;;-19.73;100.00;99139.03;1884922;75;22680;-73
2021/01/17 05:36:01;;;;;;;80.90;37.75;;;;;;;-19.70;100.00;99140.61;1847233;77;21568;-73
2021/01/17 05:38:34;;;;;;;59.77;27.93;;;;;;;-19.72;100.00;99143.69;1824498;76;21181;-73
2021/01/17 05:41:27;;;;;;;64.82;31.48;;;;;;;-19.67;100.00;99150.69;1820374;78;20989;-72
2021/01/17 05:44:08;;;;;;;85.35;37.53;;;;;;;-19.60;100.00;99147.36;1818519;78;20918;-74
2021/01/17 05:46:36;;;;;;;92.95;37.20;;;;;;;-19.52;100.00;99143.55;1820964;78;20938;-74
2021/01/17 05:49:13;;;;;;;74.62;33.67;;;;;;;-19.48;100.00;99133.98;1818329;78;21044;-76
2021/01/17 06:06:37;;;;;;;25.10;18.10;;;;;;;-19.20;100.00;99132.18;1767053;78;22157;-75
2021/01/17 07:09:04;;;;;;;85.53;39.95;;;;;;;-16.94;100.00;99182.70;1481632;95;20261;-77
2021/01/17 07:27:55;;;;;;;38.13;22.07;;;;;;;-16.23;100.00;99194.25;1778615;78;22118;-77
2021/01/17 07:44:17;;;;;;;54.30;26.48;;;;;;;-15.87;100.00;99189.49;1695884;79;21042;-76
2021/01/17 07:47:06;;;;;;;56.23;29.73;;;;;;;-15.86;100.00;99191.16;1845195;77;22697;-75
2021/01/17 07:49:46;;;;;;;52.50;26.30;;;;;;;-15.84;100.00;99190.14;1815383;78;21015;-75
2021/01/17 07:52:45;;;;;;;71.92;31.45;;;;;;;-15.79;100.00;99194.53;1717323;81;21472;-75
2021/01/17 07:55:34;;;;;;;59.88;26.70;;;;;;;-15.81;100.00;99188.66;1805748;78;21054;-75
2021/01/17 07:58:26;;;;;;;42.90;20.95;;;;;;;-15.81;100.00;99188.66;1705887;82;22167;-75
2021/01/17 08:00:56;;;;;;;47.80;25.75;;;;;;;-15.83;100.00;99188.39;1807487;78;21039;-74
2021/01/17 08:03:31;;;;;;;53.45;26.45;;;;;;;-16.00;100.00;99182.54;1713974;80;21578;-75
2021/01/17 08:06:06;;;;;;;41.20;18.12;;;;;;;-16.00;100.00;99182.54;1778976;80;21234;-75
2021/01/17 08:09:20;;;;;;;54.80;26.62;;;;;;;-16.02;100.00;99186.13;1757094;81;21151;-73
2021/01/17 08:12:27;;;;;;;48.85;23.55;;;;;;;-15.92;100.00;99183.38;1770051;79;21100;-75
2021/01/17 08:15:27;;;;;;;54.42;22.82;;;;;;;-15.69;100.00;99183.68;1756624;79;21169;-73
2021/01/17 08:17:57;;;;;;;58.83;26.10;;;;;;;-15.48;100.00;99183.58;1776280;80;21434;-74
2021/01/17 08:20:32;;;;;;;;;;;;;;;-15.43;100.00;99184.11;1796181;80;21346;-72
2021/01/17 08:23:09;;;;;;;46.35;23.73;;;;;;;-15.44;100.00;99185.48;1726479;81;20511;-74
2021/01/17 08:26:06;;;;;;;35.83;19.48;;;;;;;-15.43;100.00;99189.25;1752248;81;21177;-75
2021/01/17 08:28:36;;;;;;;53.17;26.10;;;;;;;-15.43;100.00;99189.25;1753200;81;21238;-75
2021/01/17 08:31:34;;;;;;;44.05;22.98;;;;;;;-15.49;100.00;99187.06;1751721;81;21549;-73
2021/01/17 08:34:07;;;;;;;57.67;29.23;;;;;;;-15.47;100.00;99192.94;1759856;80;21185;-73
2021/01/17 08:36:35;;;;;;;65.08;28.67;;;;;;;-15.34;100.00;99195.08;1785795;80;20935;-76
2021/01/17 08:39:14;;;;;;;51.13;23.37;;;;;;;-14.92;100.00;99188.52;1871223;76;22895;-72
2021/01/17 08:41:53;;;;;;;46.33;19.52;;;;;;;-14.75;100.00;99190.80;1799792;79;20948;-78
2021/01/17 08:44:59;;;;;;;54.08;22.58;;;;;;;-14.57;100.00;99199.07;1733856;82;21282;-76
2021/01/17 08:47:28;;;;;;;46.60;22.65;;;;;;;-13.97;100.00;99197.52;1748511;82;21619;-73
2021/01/17 08:50:11;;;;;;;;;;;;;;;;;;;;;
2021/01/17 08:52:45;;;;;;;50.37;28.07;;;;;;;-12.97;100.00;99196.80;1812675;77;25036;-74
2021/01/17 08:55:44;;;;;;;41.50;22.02;;;;;;;-12.97;100.00;99196.80;1738800;81;21006;-76
2021/01/17 09:13:26;;;;;;;51.40;22.73;;;;;;;-12.95;100.00;99191.06;1810243;77;27031;-76
2021/01/17 09:16:32;;;;;;;41.95;19.10;;;;;;;-12.53;100.00;99187.02;1677782;83;21177;-76
2021/01/17 09:20:04;;;;;;;27.58;14.55;;;;;;;-12.57;100.00;99197.23;1700454;83;21114;-77
2021/01/17 09:23:46;;;;;;;35.58;20.45;;;;;;;-12.72;100.00;99197.09;1835287;77;27276;-76
2021/01/17 09:26:14;;;;;;;39.08;17.62;;;;;;;-13.46;100.00;99196.53;1803376;78;21841;-75
2021/01/17 09:29:02;;;;;;;40.95;18.85;;;;;;;-13.42;100.00;99191.52;1723200;81;21262;-75
2021/01/17 09:31:56;;;;;;;34.53;17.62;;;;;;;-13.29;100.00;99190.16;1730233;81;21173;-76
2021/01/17 09:35:15;;;;;;;74.83;29.13;;;;;;;-13.70;100.00;99187.48;1801630;78;26658;-75
2021/01/17 09:53:27;;;;;;;31.82;15.65;;;;;;;-13.81;100.00;99168.89;1605176;86;21582;-77
2021/01/17 09:56:31;;;;;;;42.83;18.90;;;;;;;-13.67;100.00;99180.36;1766389;79;26124;-75
2021/01/17 10:13:07;;;;;;;;;;;;;;;;;;;;;
2021/01/17 10:19:20;;;;;;;;;;;;;;;;;;;;;
2021/01/17 11:14:31;;;;;;;;;;;;;;;;;;;;;
2021/01/17 12:44:34;;;;;;;29.67;15.83;;;;;;;-14.34;100.00;99157.98;1709820;80;21184;-75
2021/01/17 13:13:38;;;;;;;29.23;17.60;;;;;;;-14.66;100.00;99167.94;1800791;76;23409;-75
2021/01/17 13:16:13;;;;;;;33.23;17.75;;;;;;;-14.80;100.00;99170.14;1774627;79;21365;-74
2021/01/17 13:19:14;;;;;;;;;;;;;;;;;;;;;
2021/01/17 15:23:21;;;;;;;;;;;;;;;;;;;;;
2021/01/17 15:39:26;;;;;;;34.23;18.98;;;;;;;-15.72;100.00;99186.45;1746289;77;21189;-76
2021/01/17 15:42:23;;;;;;;32.98;17.85;;;;;;;-15.72;100.00;99184.70;1725361;81;21417;-77
2021/01/17 15:45:43;;;;;;;;;;;;;;;;;;;;;
2021/01/17 15:49:15;;;;;;;30.48;15.63;;;;;;;-15.70;100.00;99189.73;1693269;83;21748;-77
2021/01/17 16:58:56;;;;;;;;;;;;;;;;;;;;;
2021/01/17 21:03:18;;;;;;;67.87;35.87;;;;;;;-17.36;100.00;99351.01;1728664;77;28084;-78
2021/01/17 22:04:37;;;;;;;43.05;27.58;;;;;;;-17.47;100.00;99361.00;1769694;77;23207;-74
